createdAt,value
2023-08-17T00:02:25.000Z,18.23
2023-08-17T00:07:25.000Z,18.11
2023-08-17T00:12:26.000Z,18.78
2023-08-17T00:17:26.000Z,18.1
2023-08-17T00:22:26.000Z,18.06
2023-08-17T00:27:25.000Z,17.93
2023-08-17T00:32:26.000Z,18.05
2023-08-17T00:37:26.000Z,17.44
2023-08-17T00:42:25.000Z,17.69
2023-08-17T00:47:25.000Z,17.62
2023-08-17T00:52:26.000Z,17.92
2023-08-17T00:57:26.000Z,18.3
2023-08-17T01:02:26.000Z,18.57
2023-08-17T01:07:25.000Z,18
2023-08-17T01:12:26.000Z,18
2023-08-17T01:17:25.000Z,18.36
2023-08-17T01:22:25.000Z,17.8
2023-08-17T01:27:26.000Z,17.24
2023-08-17T01:32:26.000Z,16.96
2023-08-17T01:37:27.000Z,16.8
2023-08-17T01:42:25.000Z,17.24
2023-08-17T01:47:25.000Z,17.24
2023-08-17T01:52:26.000Z,18.89
2023-08-17T01:57:26.000Z,17.56
2023-08-17T02:02:26.000Z,17.71
2023-08-17T02:07:26.000Z,18.55
2023-08-17T02:12:25.000Z,19
2023-08-17T02:17:25.000Z,19.43
2023-08-17T02:22:26.000Z,20.46
2023-08-17T02:27:26.000Z,20.08
2023-08-17T02:32:26.000Z,20.19
2023-08-17T02:37:26.000Z,29.94
2023-08-17T02:42:25.000Z,21.77
2023-08-17T02:47:25.000Z,20.92
2023-08-17T02:52:25.000Z,22.01
2023-08-17T02:57:26.000Z,20.56
2023-08-17T03:02:25.000Z,20.89
2023-08-17T03:07:26.000Z,20.46
2023-08-17T03:12:25.000Z,19.61
2023-08-17T03:17:26.000Z,19.82
2023-08-17T03:22:26.000Z,19.53
2023-08-17T03:27:25.000Z,19.54
2023-08-17T03:32:26.000Z,20.85
2023-08-17T03:37:25.000Z,19.86
2023-08-17T03:42:25.000Z,19.59
2023-08-17T03:47:25.000Z,18.34
2023-08-17T03:52:26.000Z,17.56
2023-08-17T03:57:26.000Z,16.33
2023-08-17T04:02:26.000Z,15.7
2023-08-17T04:07:26.000Z,15.94
2023-08-17T04:12:25.000Z,14.71
2023-08-17T04:17:26.000Z,14.34
2023-08-17T04:22:25.000Z,15.67
2023-08-17T04:27:26.000Z,14.07
2023-08-17T04:32:26.000Z,13
2023-08-17T04:37:25.000Z,13.52
2023-08-17T04:42:25.000Z,13.59
2023-08-17T04:47:25.000Z,12.54
2023-08-17T04:52:25.000Z,13.08
2023-08-17T04:57:25.000Z,12.7
2023-08-17T05:02:25.000Z,12.52
2023-08-17T05:07:26.000Z,12.86
2023-08-17T05:12:26.000Z,11.62
2023-08-17T05:17:25.000Z,11.11
2023-08-17T05:22:26.000Z,11.09
2023-08-17T05:27:26.000Z,14.83
2023-08-17T05:32:26.000Z,11.82
2023-08-17T05:37:26.000Z,9.93
2023-08-17T05:42:26.000Z,9.89
2023-08-17T05:47:26.000Z,9.12
2023-08-17T05:52:25.000Z,10.05
2023-08-17T05:57:26.000Z,10.39
2023-08-17T06:02:25.000Z,9.11
2023-08-17T06:07:25.000Z,8.26
2023-08-17T06:12:26.000Z,8.45
2023-08-17T06:17:25.000Z,8.08
2023-08-17T06:22:26.000Z,8.06
2023-08-17T06:27:26.000Z,12.35
2023-08-17T06:32:26.000Z,8.13
2023-08-17T06:37:26.000Z,8.55
2023-08-17T06:42:25.000Z,8.27
2023-08-17T06:47:26.000Z,11.85
2023-08-17T06:52:27.000Z,9.22
2023-08-17T06:57:26.000Z,7.55
2023-08-17T07:02:26.000Z,7.6
2023-08-17T07:07:25.000Z,8.25
2023-08-17T07:12:26.000Z,7.9
2023-08-17T07:17:25.000Z,7.31
2023-08-17T07:22:26.000Z,7.03
2023-08-17T07:27:26.000Z,7.45
2023-08-17T07:32:26.000Z,7.58
2023-08-17T07:37:26.000Z,7.56
2023-08-17T07:42:25.000Z,8.09
2023-08-17T07:47:26.000Z,7.73
2023-08-17T07:52:26.000Z,7.61
2023-08-17T07:57:25.000Z,7.8
2023-08-17T08:02:26.000Z,7.39
2023-08-17T08:07:25.000Z,8.35
2023-08-17T08:12:26.000Z,7.13
2023-08-17T08:17:26.000Z,7.32
2023-08-17T08:22:25.000Z,6.95
2023-08-17T08:27:26.000Z,6.76
2023-08-17T08:32:25.000Z,6.76
2023-08-17T08:37:26.000Z,6.97
2023-08-17T08:42:26.000Z,7.02
2023-08-17T08:47:25.000Z,7.08
2023-08-17T08:52:27.000Z,6.93
2023-08-17T08:57:25.000Z,6.78
2023-08-17T09:02:26.000Z,7.47
2023-08-17T09:07:26.000Z,7.79
2023-08-17T09:17:25.000Z,7.77
2023-08-17T09:22:26.000Z,7.48
2023-08-17T09:27:25.000Z,6.97
2023-08-17T09:32:26.000Z,7.56
2023-08-17T09:37:26.000Z,7.23
2023-08-17T09:42:25.000Z,7.2
2023-08-17T09:47:25.000Z,7.3
2023-08-17T09:52:26.000Z,7.12
2023-08-17T09:57:26.000Z,7.55
2023-08-17T10:02:25.000Z,7.53
2023-08-17T10:07:25.000Z,6.91
2023-08-17T10:12:26.000Z,7.84
2023-08-17T10:17:25.000Z,7.77
2023-08-17T10:22:25.000Z,8.1
2023-08-17T10:27:25.000Z,7.32
2023-08-17T10:32:26.000Z,6.89
2023-08-17T10:37:26.000Z,6.9
2023-08-17T10:42:26.000Z,6.79
2023-08-17T10:47:25.000Z,7.44
2023-08-17T10:52:26.000Z,7.11
2023-08-17T10:57:27.000Z,7.27
2023-08-17T11:02:25.000Z,7.4
2023-08-17T11:07:25.000Z,7.49
2023-08-17T11:12:25.000Z,7.74
2023-08-17T11:17:25.000Z,6.85
2023-08-17T11:22:26.000Z,6.84
2023-08-17T11:27:26.000Z,7.13
2023-08-17T11:32:26.000Z,7.36
2023-08-17T11:37:26.000Z,7.36
2023-08-17T11:42:25.000Z,7.65
2023-08-17T11:47:25.000Z,7.46
2023-08-17T11:52:27.000Z,7.03
2023-08-17T11:57:25.000Z,7.01
2023-08-17T12:02:26.000Z,7.08
2023-08-17T12:07:26.000Z,7.21
2023-08-17T12:12:25.000Z,6.77
2023-08-17T12:17:26.000Z,6.68
2023-08-17T12:22:26.000Z,10.02
2023-08-17T12:27:26.000Z,7.42
2023-08-17T12:32:25.000Z,7.54
2023-08-17T12:37:25.000Z,9.91
2023-08-17T12:42:26.000Z,7.08
2023-08-17T12:47:26.000Z,9.64
2023-08-17T12:52:26.000Z,7.19
2023-08-17T12:57:26.000Z,7.85
2023-08-17T13:02:26.000Z,7.59
2023-08-17T13:07:25.000Z,7.5
2023-08-17T13:12:26.000Z,7.12
2023-08-17T13:17:26.000Z,6.88
2023-08-17T13:22:26.000Z,7.28
2023-08-17T13:27:25.000Z,7.81
2023-08-17T13:32:26.000Z,7.53
2023-08-17T13:37:26.000Z,7.39
2023-08-17T13:42:26.000Z,8.21
2023-08-17T13:47:26.000Z,8.07
2023-08-17T13:52:25.000Z,7.34
2023-08-17T13:57:26.000Z,7.61
2023-08-17T14:02:25.000Z,8.09
2023-08-17T14:07:26.000Z,7.91
2023-08-17T14:12:25.000Z,8.36
2023-08-17T14:17:26.000Z,7.89
2023-08-17T14:22:25.000Z,43.54
2023-08-17T14:27:26.000Z,7.94
2023-08-17T14:32:25.000Z,7.73
2023-08-17T14:37:26.000Z,7.85
2023-08-17T14:42:26.000Z,7.62
2023-08-17T14:47:26.000Z,7.75
2023-08-17T14:52:25.000Z,7.89
2023-08-17T14:57:26.000Z,8.09
2023-08-17T15:02:25.000Z,8.88
2023-08-17T15:07:25.000Z,8.64
2023-08-17T15:12:26.000Z,7.99
2023-08-17T15:17:26.000Z,8.63
2023-08-17T15:22:25.000Z,7.99
2023-08-17T15:27:26.000Z,8.82
2023-08-17T15:32:25.000Z,8.31
2023-08-17T15:37:25.000Z,9.04
2023-08-17T15:42:25.000Z,10.4
2023-08-17T15:47:25.000Z,10.21
2023-08-17T15:52:25.000Z,10.56
2023-08-17T15:57:25.000Z,9.89
2023-08-17T16:02:25.000Z,10.54
2023-08-17T16:07:25.000Z,11.33
2023-08-17T16:12:26.000Z,10.13
2023-08-17T16:17:26.000Z,10.67
2023-08-17T16:22:25.000Z,11.28
2023-08-17T16:27:25.000Z,11.19
2023-08-17T16:32:26.000Z,13.63
2023-08-17T16:37:25.000Z,12.83
2023-08-17T16:42:26.000Z,17.5
2023-08-17T16:47:26.000Z,19.68
2023-08-17T16:52:26.000Z,20.13
2023-08-17T16:57:25.000Z,19.46
2023-08-17T17:02:25.000Z,23.16
2023-08-17T17:07:26.000Z,20.39
2023-08-17T17:12:25.000Z,17.8
2023-08-17T17:17:26.000Z,17.67
2023-08-17T17:22:26.000Z,15.55
2023-08-17T17:27:27.000Z,16.68
2023-08-17T17:32:26.000Z,15.53
2023-08-17T17:37:26.000Z,18.5
2023-08-17T17:42:26.000Z,18.06
2023-08-17T17:52:26.000Z,22.19
2023-08-17T17:57:25.000Z,25.1
2023-08-17T18:02:26.000Z,37.63
2023-08-17T18:07:25.000Z,36.97
2023-08-17T18:12:25.000Z,29.89
2023-08-17T18:17:26.000Z,19.38
2023-08-17T18:22:26.000Z,18.53
2023-08-17T18:27:25.000Z,18.01
2023-08-17T18:32:26.000Z,16.89
2023-08-17T18:37:25.000Z,17.17
2023-08-17T18:42:26.000Z,17.95
2023-08-17T18:47:26.000Z,14.76
2023-08-17T18:52:26.000Z,16.76
2023-08-17T18:57:26.000Z,18.05
2023-08-17T19:02:25.000Z,15.95
2023-08-17T19:07:25.000Z,15.41
2023-08-17T19:12:26.000Z,16.03
2023-08-17T19:17:26.000Z,15.99
2023-08-17T19:22:26.000Z,17.25
2023-08-17T19:27:26.000Z,17.7
2023-08-17T19:32:25.000Z,17.58
2023-08-17T19:37:25.000Z,16.45
2023-08-17T19:42:26.000Z,17.58
2023-08-17T19:47:25.000Z,19.06
2023-08-17T19:52:25.000Z,19.67
2023-08-17T19:57:25.000Z,20.96
2023-08-17T20:02:26.000Z,21.94
2023-08-17T20:07:25.000Z,22.73
2023-08-17T20:12:26.000Z,23.78
2023-08-17T20:17:25.000Z,23.77
2023-08-17T20:22:25.000Z,23.04
2023-08-17T20:27:26.000Z,22.49
2023-08-17T20:32:26.000Z,22.71
2023-08-17T20:37:26.000Z,23.72
2023-08-17T20:42:26.000Z,21.24
2023-08-17T20:47:26.000Z,19.76
2023-08-17T20:52:25.000Z,19.29
2023-08-17T20:57:25.000Z,19.55
2023-08-17T21:02:26.000Z,19.5
2023-08-17T21:07:26.000Z,19.82
2023-08-17T21:12:25.000Z,19.23
2023-08-17T21:17:25.000Z,19.7
2023-08-17T21:22:26.000Z,19.08
2023-08-17T21:27:26.000Z,20.28
2023-08-17T21:32:25.000Z,18.96
2023-08-17T21:37:25.000Z,20.04
2023-08-17T21:42:26.000Z,21.91
2023-08-17T21:47:25.000Z,29.3
2023-08-17T21:52:26.000Z,30.59
2023-08-17T21:57:26.000Z,27.02
2023-08-17T22:02:26.000Z,23.18
2023-08-17T22:07:26.000Z,20.71
2023-08-17T22:12:26.000Z,21.82
2023-08-17T22:17:26.000Z,22.93
2023-08-17T22:22:25.000Z,22.72
2023-08-17T22:27:25.000Z,24.67
2023-08-17T22:32:25.000Z,24.13
2023-08-17T22:37:26.000Z,24.06
2023-08-17T22:42:25.000Z,24.07
2023-08-17T22:47:26.000Z,24.22
2023-08-17T22:52:25.000Z,26.09
2023-08-17T22:57:26.000Z,25.92
2023-08-17T23:02:25.000Z,25.29
2023-08-17T23:07:25.000Z,26.28
2023-08-17T23:12:25.000Z,25.34
2023-08-17T23:22:25.000Z,25.79
2023-08-17T23:27:25.000Z,26.37
2023-08-17T23:32:26.000Z,25.44
2023-08-17T23:37:25.000Z,24.35
2023-08-17T23:42:25.000Z,24.79
2023-08-17T23:47:25.000Z,24.42
2023-08-17T23:52:26.000Z,28.56
2023-08-17T23:57:26.000Z,28.82
